Time;durP1;ratioP1;P1;durP2;ratioP2;P2;SDS_P1;SDS_P2;PMS_P1;PMS_P2;Temp;Humidity;BMP_temperature;BMP_pressure;BME280_temperature;BME280_humidity;BME280_pressure;Samples;Min_cycle;Max_cycle;Signal;HPM_P1;HPM_P2
2022/09/25 00:00:17;;;;;;;19.65;9.60;;;;;;;13.01;65.62;100760.72;2071966;28;20049;-69
2022/09/25 00:01:22;;;;;;;18.73;9.23;;;;;;;13.00;65.53;100761.84;2056052;28;20037;-68
2022/09/25 00:02:24;;;;;;;21.58;9.43;;;;;;;12.96;65.33;100758.91;2064629;28;20046;-68
2022/09/25 00:03:30;;;;;;;15.13;8.43;;;;;;;12.87;65.67;100757.16;2072480;28;20070;-69
2022/09/25 00:04:34;;;;;;;14.23;8.00;;;;;;;12.68;66.02;100752.50;2071932;28;20034;-69
2022/09/25 00:05:41;;;;;;;20.10;8.90;;;;;;;12.69;66.10;100753.31;2054967;28;20038;-69
2022/09/25 00:06:48;;;;;;;;;;;;;;;12.72;65.92;100756.22;2055696;28;20035;-69
2022/09/25 00:07:52;;;;;;;17.85;8.38;;;;;;;12.78;65.92;100754.28;2063432;28;20460;-69
2022/09/25 00:09:03;;;;;;;17.13;8.85;;;;;;;12.81;66.12;100753.69;2069170;28;20057;-68
2022/09/25 00:10:06;;;;;;;17.88;8.50;;;;;;;12.81;66.06;100747.50;2064063;28;20063;-68
2022/09/25 00:11:12;;;;;;;17.48;8.65;;;;;;;12.85;65.98;100754.72;2063319;28;20034;-69
2022/09/25 00:12:19;;;;;;;16.33;8.63;;;;;;;12.88;65.71;100748.75;2063759;28;20053;-69
2022/09/25 00:13:22;;;;;;;17.88;8.93;;;;;;;12.87;65.58;100751.75;2071618;28;20041;-69
2022/09/25 00:14:27;;;;;;;19.58;8.80;;;;;;;12.88;65.25;100746.06;2063907;28;20410;-69
2022/09/25 00:15:34;;;;;;;17.60;8.27;;;;;;;12.90;65.43;100746.56;2056736;28;20047;-68
2022/09/25 00:16:41;;;;;;;20.70;9.30;;;;;;;12.92;65.17;100732.78;2056558;28;20038;-68
2022/09/25 00:17:44;;;;;;;23.02;9.15;;;;;;;12.95;65.11;100743.00;2056322;28;20115;-69
2022/09/25 00:20:14;;;;;;;18.30;8.88;;;;;;;12.98;64.86;100742.41;2063429;28;20053;-68
2022/09/25 00:21:19;;;;;;;18.33;9.05;;;;;;;12.98;64.71;100743.22;2071940;28;20049;-68
2022/09/25 00:22:25;;;;;;;18.50;8.43;;;;;;;12.98;64.74;100734.31;2072129;28;20052;-69
2022/09/25 00:23:27;;;;;;;16.17;8.38;;;;;;;12.96;64.59;100736.53;2071862;28;20053;-69
2022/09/25 00:24:35;;;;;;;14.80;8.00;;;;;;;12.96;64.51;100742.72;2064171;28;20042;-69
2022/09/25 00:25:40;;;;;;;18.08;8.10;;;;;;;12.95;64.14;100734.91;2071936;28;20030;-69
2022/09/25 00:26:42;;;;;;;14.77;7.68;;;;;;;12.92;63.96;100736.28;2071783;28;20487;-69
2022/09/25 00:27:44;;;;;;;16.27;8.65;;;;;;;12.88;63.90;100729.06;2055545;28;20042;-69
2022/09/25 00:28:52;;;;;;;18.20;8.35;;;;;;;12.87;64.01;100738.25;2056021;28;20058;-69
2022/09/25 00:29:54;;;;;;;17.50;8.27;;;;;;;12.90;63.92;100729.59;2071500;28;20056;-69
2022/09/25 00:30:57;;;;;;;13.57;7.40;;;;;;;12.93;63.90;100732.50;2063627;28;20042;-69
2022/09/25 00:32:02;;;;;;;15.60;8.35;;;;;;;12.92;64.03;100730.88;2059621;28;20061;-69
2022/09/25 00:33:09;;;;;;;18.80;8.57;;;;;;;12.94;63.91;100731.41;2063842;28;20128;-69
2022/09/25 00:34:11;;;;;;;17.08;8.15;;;;;;;12.95;64.07;100727.59;2063516;28;20046;-69
2022/09/25 00:35:16;;;;;;;13.82;7.22;;;;;;;12.95;63.66;100732.19;2055906;28;20030;-69
2022/09/25 00:36:19;;;;;;;15.02;7.40;;;;;;;12.94;63.70;100728.69;2068169;28;20474;-70
2022/09/25 00:37:22;;;;;;;18.17;7.60;;;;;;;12.94;63.75;100730.59;2072230;28;20057;-69
2022/09/25 00:38:27;;;;;;;11.60;7.15;;;;;;;12.94;63.60;100730.59;2072101;28;20061;-71
2022/09/25 00:39:33;;;;;;;13.85;7.38;;;;;;;12.93;63.36;100727.09;2079671;28;20334;-71
2022/09/25 00:40:39;;;;;;;12.93;6.85;;;;;;;12.91;63.20;100731.97;2062861;28;20398;-71
2022/09/25 00:41:41;;;;;;;13.00;7.22;;;;;;;12.92;62.83;100728.19;2056977;28;20046;-71
2022/09/25 00:42:43;;;;;;;12.88;7.10;;;;;;;12.92;62.95;100727.38;2063411;28;20038;-71
2022/09/25 00:44:12;;;;;;;17.10;7.40;;;;;;;12.93;63.05;100729.00;2071869;28;20541;-71
2022/09/25 00:45:21;;;;;;;15.30;7.40;;;;;;;12.92;62.98;100724.69;2070493;28;20034;-71
2022/09/25 00:46:23;;;;;;;16.90;7.10;;;;;;;12.94;63.00;100725.22;2071244;28;20034;-71
2022/09/25 00:47:40;;;;;;;15.07;6.95;;;;;;;12.95;63.08;100726.81;2063674;28;20042;-71
2022/09/25 00:48:47;;;;;;;14.07;7.05;;;;;;;12.96;63.13;100723.03;2065345;28;20042;-70
2022/09/25 00:49:51;;;;;;;14.93;7.20;;;;;;;12.96;62.98;100723.84;2067719;28;20050;-71
2022/09/25 00:50:58;;;;;;;12.73;7.22;;;;;;;12.96;63.09;100723.03;2072124;28;20034;-71
2022/09/25 00:52:09;;;;;;;12.52;6.95;;;;;;;12.97;63.07;100721.94;2070938;28;20505;-70
2022/09/25 00:53:15;;;;;;;17.95;7.88;;;;;;;12.98;63.00;100726.22;2047438;29;20047;-70
2022/09/25 00:54:24;;;;;;;24.33;6.63;;;;;;;12.97;62.70;100722.72;2049762;28;20039;-69
2022/09/25 00:55:27;;;;;;;14.82;7.15;;;;;;;12.95;62.60;100722.19;2055034;28;20046;-69
2022/09/25 00:56:37;;;;;;;11.77;7.00;;;;;;;12.95;62.84;100721.41;2054864;28;20612;-70
2022/09/25 00:57:49;;;;;;;13.05;6.97;;;;;;;12.97;62.95;100727.31;2064610;28;20101;-69
2022/09/25 00:58:52;;;;;;;11.32;6.63;;;;;;;12.98;62.97;100723.53;2070120;28;20872;-69
2022/09/25 01:00:05;;;;;;;12.38;7.20;;;;;;;13.01;63.00;100724.84;2064043;28;20387;-70
2022/09/25 01:01:11;;;;;;;17.60;7.20;;;;;;;12.98;62.96;100720.81;2071036;28;20042;-70
2022/09/25 01:02:24;;;;;;;14.32;7.28;;;;;;;13.00;62.79;100729.44;2072223;28;20033;-69
2022/09/25 01:03:29;;;;;;;11.57;6.95;;;;;;;13.01;62.89;100724.84;2071589;28;20053;-69
2022/09/25 01:04:37;;;;;;;14.48;7.13;;;;;;;13.02;62.67;100727.28;2072372;28;20517;-69
2022/09/25 01:05:44;;;;;;;10.68;7.13;;;;;;;13.00;62.74;100721.34;2073721;28;20057;-69
2022/09/25 01:06:52;;;;;;;14.38;6.80;;;;;;;12.96;62.68;100723.03;2080394;28;20041;-69
2022/09/25 01:07:57;;;;;;;12.38;6.60;;;;;;;13.00;62.63;100724.03;2078675;28;20405;-70
2022/09/25 01:08:59;;;;;;;13.60;7.05;;;;;;;12.96;62.49;100725.72;2071633;28;20064;-68
2022/09/25 01:10:09;;;;;;;12.50;6.82;;;;;;;12.94;62.79;100722.50;2071531;28;20049;-69
2022/09/25 01:11:16;;;;;;;11.80;6.90;;;;;;;12.90;62.90;100725.00;2063499;28;20788;-69
2022/09/25 01:12:23;;;;;;;10.40;6.55;;;;;;;12.89;62.94;100722.56;2056105;28;20030;-69
2022/09/25 01:13:27;;;;;;;11.57;6.90;;;;;;;12.90;63.05;100727.69;2062966;28;20430;-70
2022/09/25 01:14:32;;;;;;;10.82;7.15;;;;;;;12.89;63.00;100722.56;2062987;28;20544;-68
2022/09/25 01:15:45;;;;;;;13.70;7.43;;;;;;;12.88;63.06;100723.66;2062576;28;20041;-70
2022/09/25 01:17:15;;;;;;;12.95;6.97;;;;;;;12.89;63.09;100722.56;2064778;28;20525;-69
2022/09/25 01:18:24;;;;;;;16.05;7.35;;;;;;;12.89;62.89;100723.38;2054998;28;20039;-69
2022/09/25 01:20:04;;;;;;;11.63;7.00;;;;;;;12.91;62.84;100723.88;2058163;28;20050;-69
2022/09/25 01:21:35;;;;;;;12.93;7.22;;;;;;;12.94;62.84;100725.22;2078512;28;20034;-69
2022/09/25 01:22:54;;;;;;;13.40;6.75;;;;;;;12.92;62.34;100719.28;2074856;28;20057;-69
2022/09/25 01:24:19;;;;;;;11.18;6.93;;;;;;;12.84;61.91;100719.94;2082171;28;20044;-69
2022/09/25 01:25:24;;;;;;;16.42;7.03;;;;;;;12.82;62.02;100714.03;2068089;28;20579;-69
2022/09/25 01:27:09;;;;;;;16.40;6.70;;;;;;;12.80;61.88;100718.91;2067685;28;20176;-69
2022/09/25 01:28:20;;;;;;;14.98;7.40;;;;;;;12.86;61.40;100720.44;2071085;28;20033;-69
2022/09/25 01:29:44;;;;;;;13.45;6.90;;;;;;;12.88;61.39;100720.97;2065298;28;20050;-69
2022/09/25 01:30:57;;;;;;;15.63;6.95;;;;;;;12.90;61.50;100724.19;2057438;28;20054;-69
2022/09/25 01:32:03;;;;;;;13.30;7.07;;;;;;;12.77;61.85;100717.59;2058620;28;20041;-70
2022/09/25 01:33:13;;;;;;;11.93;6.70;;;;;;;12.84;61.86;100717.25;2063966;28;20517;-69
2022/09/25 01:34:39;;;;;;;14.68;7.10;;;;;;;12.83;61.87;100715.63;2073093;28;20705;-70
2022/09/25 01:35:58;;;;;;;14.00;6.78;;;;;;;12.86;61.99;100723.97;2066078;28;20046;-69
2022/09/25 01:37:15;;;;;;;12.27;6.38;;;;;;;12.86;61.64;100725.84;2065384;28;20418;-70
2022/09/25 01:38:30;;;;;;;13.55;6.72;;;;;;;12.86;61.69;100715.88;2055000;28;20058;-69
2022/09/25 01:39:41;;;;;;;13.50;6.22;;;;;;;12.86;61.78;100713.19;2058191;28;20529;-70
2022/09/25 01:40:54;;;;;;;10.68;5.68;;;;;;;12.89;61.61;100706.38;2069807;28;20042;-70
2022/09/25 01:42:04;;;;;;;12.85;6.32;;;;;;;12.90;61.80;100710.69;2071912;28;20037;-70
2022/09/25 01:43:21;;;;;;;11.13;6.40;;;;;;;12.91;61.44;100715.78;2078679;28;20054;-69
2022/09/25 01:44:34;;;;;;;14.15;6.80;;;;;;;12.91;61.79;100713.09;2077261;28;20033;-69
2022/09/25 01:45:43;;;;;;;12.57;6.13;;;;;;;12.90;61.71;100716.09;2063047;28;20038;-69
2022/09/25 01:46:52;;;;;;;11.20;6.45;;;;;;;12.92;61.90;100708.50;2063985;28;20053;-69
2022/09/25 01:47:58;;;;;;;11.63;5.95;;;;;;;12.91;61.92;100710.41;2071668;28;20049;-70
2022/09/25 01:49:09;;;;;;;10.90;6.30;;;;;;;12.93;61.83;100710.13;2065185;28;20046;-69
2022/09/25 01:50:26;;;;;;;12.50;6.45;;;;;;;12.94;61.78;100709.00;2056359;28;20043;-69
2022/09/25 01:51:37;;;;;;;12.63;6.15;;;;;;;12.94;61.68;100712.50;2065362;28;20053;-69
2022/09/25 01:52:47;;;;;;;13.18;6.30;;;;;;;12.93;61.72;100716.31;2070350;28;20062;-70
2022/09/25 01:54:02;;;;;;;13.77;6.00;;;;;;;12.94;61.74;100700.91;2063055;28;20627;-70
2022/09/25 01:55:18;;;;;;;13.35;6.38;;;;;;;12.94;61.68;100717.91;2063489;28;20067;-69
2022/09/25 01:56:31;;;;;;;11.45;6.22;;;;;;;12.95;61.67;100713.31;2063128;28;20030;-69
2022/09/25 01:57:41;;;;;;;10.23;6.07;;;;;;;12.95;61.60;100705.22;2064420;28;20045;-70
2022/09/25 01:58:52;;;;;;;12.43;6.50;;;;;;;12.94;61.61;100707.13;2071131;28;20041;-69
2022/09/25 02:00:14;;;;;;;11.75;6.07;;;;;;;12.96;61.69;100704.13;2062979;28;20042;-70
2022/09/25 02:01:27;;;;;;;12.70;6.00;;;;;;;12.96;61.37;100706.84;2058374;28;20031;-70
2022/09/25 02:02:34;;;;;;;12.70;6.20;;;;;;;12.95;61.50;100707.91;2056690;28;20086;-70
2022/09/25 02:03:50;;;;;;;11.13;5.55;;;;;;;12.97;61.44;100708.44;2059901;28;20038;-69
2022/09/25 02:05:01;;;;;;;10.43;5.65;;;;;;;12.97;61.28;100703.84;2055196;28;20592;-69
2022/09/25 02:06:08;;;;;;;11.52;6.43;;;;;;;12.98;61.41;100701.94;2054530;28;20039;-69
2022/09/25 02:07:19;;;;;;;11.25;6.10;;;;;;;12.99;61.37;100704.34;2069578;28;20037;-69
2022/09/25 02:08:28;;;;;;;10.88;5.57;;;;;;;12.98;61.47;100699.22;2071135;28;20030;-69
2022/09/25 02:09:40;;;;;;;8.82;5.68;;;;;;;13.00;61.42;100707.84;2072668;28;20037;-69
2022/09/25 02:10:54;;;;;;;12.05;6.20;;;;;;;12.97;61.39;100692.25;2071001;28;20061;-69
2022/09/25 02:12:06;;;;;;;11.38;5.97;;;;;;;12.99;61.40;100696.25;2073077;28;20493;-69
2022/09/25 02:13:16;;;;;;;9.10;5.90;;;;;;;12.97;61.53;100694.94;2071026;28;20034;-69
2022/09/25 02:14:35;;;;;;;10.40;5.80;;;;;;;12.97;61.54;100693.03;2071381;28;20058;-69
2022/09/25 02:15:43;;;;;;;12.02;5.97;;;;;;;13.00;61.49;100691.66;2071840;28;20034;-68
2022/09/25 02:16:48;;;;;;;12.95;6.38;;;;;;;13.01;61.57;100692.47;2063720;28;20046;-69
2022/09/25 02:21:14;;;;;;;9.40;5.53;;;;;;;13.01;61.42;100693.25;2070811;28;20125;-69
2022/09/25 02:22:29;;;;;;;10.45;5.68;;;;;;;13.02;61.39;100689.47;2074771;28;20041;-69
2022/09/25 02:23:51;;;;;;;11.20;5.47;;;;;;;13.02;61.31;100689.47;2077435;28;20056;-69
2022/09/25 02:25:05;;;;;;;;;;;;;;;13.03;61.36;100685.69;2055966;28;20069;-69
2022/09/25 02:26:13;;;;;;;9.32;5.45;;;;;;;13.03;61.46;100685.69;2050513;28;19925;-69
2022/09/25 02:27:19;;;;;;;10.82;5.40;;;;;;;13.02;61.37;100694.88;2063081;28;20050;-69
2022/09/25 02:28:25;;;;;;;8.57;5.38;;;;;;;13.02;61.39;100686.78;2056056;28;20399;-69
2022/09/25 02:29:30;;;;;;;10.45;5.75;;;;;;;13.02;61.37;100684.09;2056294;28;20128;-69
2022/09/25 02:30:35;;;;;;;7.95;5.38;;;;;;;13.02;61.52;100681.38;2064565;28;20061;-69
2022/09/25 02:31:48;;;;;;;9.38;5.30;;;;;;;13.02;61.50;100683.25;2065672;28;20043;-69
2022/09/25 02:32:56;;;;;;;10.98;5.82;;;;;;;13.01;61.35;100685.16;2065924;28;20042;-69
2022/09/25 02:34:06;;;;;;;10.73;5.45;;;;;;;13.00;61.50;100683.56;2072938;28;20045;-69
2022/09/25 02:35:11;;;;;;;;;;;;;;;12.99;61.32;100680.06;2072042;28;20042;-68
2022/09/25 02:36:19;;;;;;;9.38;5.50;;;;;;;13.00;61.73;100686.25;2060267;28;19973;-69
2022/09/25 02:37:23;;;;;;;11.10;5.68;;;;;;;13.00;61.52;100680.88;2068183;28;20045;-69
2022/09/25 02:38:25;;;;;;;9.80;5.63;;;;;;;13.00;61.54;100680.88;2064644;28;20062;-68
2022/09/25 02:39:30;;;;;;;11.60;5.68;;;;;;;13.01;61.50;100682.47;2065372;28;20541;-69
2022/09/25 02:41:06;;;;;;;9.80;5.93;;;;;;;12.98;61.56;100681.13;2081077;28;20350;-69
2022/09/25 02:42:22;;;;;;;11.70;5.80;;;;;;;13.01;61.52;100674.38;2069463;28;20057;-69
2022/09/25 02:43:44;;;;;;;13.85;6.07;;;;;;;13.00;61.34;100675.47;2072465;28;20061;-69
2022/09/25 02:45:32;;;;;;;9.70;5.47;;;;;;;13.01;61.43;100671.66;2069605;28;20112;-69
2022/09/25 02:46:39;;;;;;;9.82;5.55;;;;;;;13.00;61.49;100675.47;2053885;28;20055;-69
2022/09/25 02:48:19;;;;;;;11.18;5.53;;;;;;;12.98;61.48;100672.25;2063823;28;20410;-68
2022/09/25 02:49:45;;;;;;;12.73;5.82;;;;;;;12.94;61.49;100673.94;2072617;28;20046;-68
2022/09/25 02:51:01;;;;;;;11.95;6.13;;;;;;;12.91;61.66;100666.41;2072321;28;20478;-69
2022/09/25 02:52:15;;;;;;;14.48;6.05;;;;;;;12.91;61.58;100672.59;2072478;28;20605;-69
2022/09/25 02:53:37;;;;;;;12.40;5.80;;;;;;;12.93;61.65;100669.63;2064384;28;20061;-69
2022/09/25 02:54:53;;;;;;;12.38;6.10;;;;;;;12.94;61.41;100671.22;2064805;28;20050;-69
2022/09/25 02:56:16;;;;;;;12.20;6.13;;;;;;;12.95;61.49;100667.44;2065025;28;20042;-69
2022/09/25 02:57:31;;;;;;;11.60;5.65;;;;;;;12.94;61.44;100668.53;2064020;28;20513;-68
2022/09/25 02:58:39;;;;;;;10.52;5.47;;;;;;;12.95;61.26;100673.63;2058220;28;20057;-69
2022/09/25 02:59:50;;;;;;;10.25;5.80;;;;;;;12.96;61.39;100669.06;2064361;28;20505;-69
2022/09/25 03:00:54;;;;;;;11.57;6.10;;;;;;;12.96;61.43;100671.75;2068744;28;20049;-69
2022/09/25 03:01:58;;;;;;;12.27;5.75;;;;;;;12.96;61.30;100672.56;2064451;28;20042;-69
2022/09/25 03:03:02;;;;;;;15.32;6.10;;;;;;;12.97;61.15;100665.25;2064495;28;20050;-69
2022/09/25 03:04:08;;;;;;;12.18;6.30;;;;;;;12.98;61.09;100669.53;2065839;28;20046;-69
2022/09/25 03:05:12;;;;;;;13.20;5.97;;;;;;;12.98;61.09;100669.53;2064339;28;20038;-69
2022/09/25 03:06:15;;;;;;;11.73;5.88;;;;;;;12.96;61.10;100658.25;2077693;28;20062;-69
2022/09/25 03:07:20;;;;;;;15.10;6.25;;;;;;;12.97;61.35;100659.84;2061109;28;20038;-69
2022/09/25 03:08:40;;;;;;;10.27;5.63;;;;;;;12.97;61.22;100666.06;2057140;28;20121;-69
2022/09/25 03:09:47;;;;;;;13.90;6.03;;;;;;;12.97;61.00;100670.66;2058645;28;20049;-68
2022/09/25 03:10:53;;;;;;;13.52;5.25;;;;;;;12.98;60.92;100664.94;2065181;28;20058;-69
2022/09/25 03:11:56;;;;;;;9.43;5.90;;;;;;;12.99;60.95;100665.78;2072298;28;20533;-69
2022/09/25 03:13:15;;;;;;;9.70;5.57;;;;;;;13.01;60.76;100666.25;2072019;28;20052;-69
2022/09/25 03:14:17;;;;;;;11.40;5.63;;;;;;;13.01;60.82;100666.25;2065100;28;20536;-69
2022/09/25 03:15:22;;;;;;;8.70;5.43;;;;;;;13.00;60.55;100667.38;2072313;28;20041;-69
2022/09/25 03:16:29;;;;;;;12.18;5.63;;;;;;;12.98;60.60;100666.84;2064263;28;20053;-69
2022/09/25 03:17:33;;;;;;;11.57;5.65;;;;;;;12.97;60.59;100665.25;2072313;28;20045;-70
2022/09/25 03:18:35;;;;;;;9.20;5.47;;;;;;;12.96;60.61;100667.16;2064183;28;20035;-68
2022/09/25 03:19:42;;;;;;;11.85;5.47;;;;;;;12.98;60.65;100667.66;2056541;28;20041;-69
2022/09/25 03:20:44;;;;;;;10.05;5.28;;;;;;;12.98;60.63;100666.84;2055928;28;20050;-68
2022/09/25 03:21:53;;;;;;;13.27;5.40;;;;;;;12.96;61.03;100663.66;2049284;28;20519;-68
2022/09/25 03:22:55;;;;;;;9.30;5.47;;;;;;;12.94;60.73;100668.53;2056619;28;20038;-69
2022/09/25 03:24:01;;;;;;;10.20;5.60;;;;;;;12.92;60.75;100663.41;2048320;28;20043;-69
2022/09/25 03:25:05;;;;;;;10.07;5.85;;;;;;;12.93;61.07;100664.25;2049595;28;20042;-69
2022/09/25 03:26:06;;;;;;;10.57;5.60;;;;;;;12.94;61.14;100660.44;2048419;28;20042;-69
2022/09/25 03:27:18;;;;;;;9.27;5.63;;;;;;;12.94;61.25;100665.84;2056414;28;20043;-68
2022/09/25 03:28:25;;;;;;;11.20;6.05;;;;;;;12.94;60.93;100660.44;2077349;28;20037;-68
2022/09/25 03:29:29;;;;;;;11.50;5.60;;;;;;;12.94;60.98;100665.84;2080126;28;20125;-68
2022/09/25 03:30:37;;;;;;;8.63;5.15;;;;;;;12.94;61.05;100665.84;2080312;28;20033;-69
2022/09/25 03:31:41;;;;;;;9.45;5.55;;;;;;;12.92;61.15;100670.72;2079775;28;20034;-68
2022/09/25 03:32:43;;;;;;;8.93;5.80;;;;;;;12.90;61.10;100662.13;2080183;28;20704;-69
2022/09/25 03:33:46;;;;;;;9.20;5.30;;;;;;;12.85;61.13;100654.88;2072290;28;20034;-68
2022/09/25 03:34:53;;;;;;;13.18;5.20;;;;;;;12.89;61.17;100663.19;2072189;28;20604;-68
2022/09/25 03:36:25;;;;;;;8.88;5.40;;;;;;;12.87;61.11;100660.00;2065423;28;20407;-69
2022/09/25 03:37:28;;;;;;;19.63;5.63;;;;;;;12.88;61.38;100659.69;2067872;28;20057;-69
2022/09/25 03:38:35;;;;;;;9.95;5.40;;;;;;;12.88;61.07;100661.59;2064233;28;20065;-69
2022/09/25 03:39:37;;;;;;;11.65;5.63;;;;;;;12.87;61.11;100655.41;2073423;28;20042;-69
2022/09/25 03:40:41;;;;;;;9.63;5.35;;;;;;;12.87;60.97;100663.50;2087633;28;20033;-69
2022/09/25 03:41:46;;;;;;;9.88;5.00;;;;;;;12.86;60.91;100664.59;2071389;28;20054;-70
2022/09/25 03:42:51;;;;;;;10.30;5.13;;;;;;;12.87;60.96;100662.69;2072644;28;20045;-70
2022/09/25 03:43:57;;;;;;;12.40;5.28;;;;;;;12.87;60.91;100660.00;2072254;28;20064;-70
2022/09/25 03:45:01;;;;;;;14.00;5.57;;;;;;;12.87;60.88;100654.59;2064387;28;20046;-69
2022/09/25 03:46:07;;;;;;;12.75;5.68;;;;;;;12.89;60.76;100652.41;2072207;28;20046;-70
2022/09/25 03:47:10;;;;;;;12.05;5.40;;;;;;;12.86;60.67;100655.69;2072648;28;20034;-70
2022/09/25 03:48:12;;;;;;;7.85;4.90;;;;;;;12.88;60.85;100661.59;2080279;28;20044;-69
2022/09/25 03:49:19;;;;;;;12.60;5.47;;;;;;;12.87;60.74;100652.72;2079722;28;20650;-68
2022/09/25 03:50:22;;;;;;;9.73;5.47;;;;;;;12.85;60.83;100648.69;2072795;28;20034;-69
2022/09/25 03:51:26;;;;;;;10.20;5.40;;;;;;;12.87;60.69;100660.81;2071875;28;20461;-69
2022/09/25 03:52:28;;;;;;;8.93;5.40;;;;;;;12.86;60.79;100653.81;2063865;28;20053;-69
2022/09/25 03:53:40;;;;;;;11.00;6.03;;;;;;;12.88;60.70;100657.00;2063973;28;20041;-69
2022/09/25 03:54:45;;;;;;;10.32;5.60;;;;;;;12.84;60.86;100657.88;2065367;28;20050;-69
2022/09/25 03:55:53;;;;;;;10.38;4.95;;;;;;;12.83;60.66;100659.78;2064353;28;20042;-69
2022/09/25 03:56:56;;;;;;;9.10;5.43;;;;;;;12.84;60.53;100665.97;2056484;28;20039;-69
2022/09/25 03:58:03;;;;;;;9.45;5.22;;;;;;;12.80;60.78;100660.38;2064714;28;20395;-69
2022/09/25 03:59:06;;;;;;;10.95;5.35;;;;;;;12.81;60.71;100663.88;2080064;28;20029;-69
2022/09/25 04:00:13;;;;;;;9.25;5.70;;;;;;;12.79;60.64;100656.03;2078364;28;20041;-70
2022/09/25 04:01:15;;;;;;;10.35;5.57;;;;;;;12.79;60.80;100658.75;2071396;28;20506;-70
2022/09/25 04:02:18;;;;;;;8.10;5.25;;;;;;;12.80;60.85;100664.94;2063731;28;20050;-69
2022/09/25 04:03:22;;;;;;;9.32;5.63;;;;;;;12.78;60.82;100659.03;2072111;28;20034;-69
2022/09/25 04:04:31;;;;;;;10.32;5.80;;;;;;;12.80;60.93;100664.94;2071985;28;20494;-70
2022/09/25 04:05:38;;;;;;;10.23;5.45;;;;;;;12.81;61.15;100658.47;2072645;28;20470;-70
2022/09/25 04:06:43;;;;;;;9.93;5.45;;;;;;;12.81;61.01;100661.97;2071980;28;20045;-69
2022/09/25 04:07:47;;;;;;;9.82;5.43;;;;;;;12.82;60.95;100663.56;2063967;28;20038;-69
2022/09/25 04:08:50;;;;;;;10.27;5.63;;;;;;;12.82;61.04;100662.75;2063784;28;20430;-69
2022/09/25 04:09:53;;;;;;;10.90;5.43;;;;;;;12.84;61.03;100671.38;2055874;28;20069;-68
2022/09/25 04:10:58;;;;;;;8.65;5.10;;;;;;;12.81;61.00;100661.16;2064245;28;20042;-69
2022/09/25 04:12:04;;;;;;;12.25;5.53;;;;;;;12.73;61.33;100663.41;2063505;28;20049;-68
2022/09/25 04:13:07;;;;;;;9.57;5.15;;;;;;;12.73;61.37;100663.41;2056223;28;20051;-69
2022/09/25 04:14:11;;;;;;;13.88;5.68;;;;;;;12.75;61.27;100669.31;2055842;28;20041;-69
2022/09/25 04:15:18;;;;;;;10.75;5.40;;;;;;;12.75;61.27;100658.53;2056685;28;20045;-69
2022/09/25 04:16:26;;;;;;;9.85;5.30;;;;;;;12.75;61.35;100658.53;2063813;28;20042;-69
2022/09/25 04:17:31;;;;;;;9.02;5.55;;;;;;;12.77;61.20;100660.94;2080089;28;20038;-70
2022/09/25 04:18:34;;;;;;;9.32;5.60;;;;;;;12.78;61.52;100662.53;2078674;28;20398;-68
2022/09/25 04:19:36;;;;;;;10.20;5.80;;;;;;;12.79;61.60;100664.13;2071839;28;20041;-69
2022/09/25 04:20:41;;;;;;;9.63;5.55;;;;;;;12.81;61.55;100661.16;2063711;28;20057;-69
2022/09/25 04:21:43;;;;;;;14.30;5.97;;;;;;;12.82;61.65;100662.75;2064220;28;20038;-69
2022/09/25 04:22:48;;;;;;;13.70;6.25;;;;;;;12.82;61.62;100658.16;2071302;28;20425;-69
2022/09/25 04:25:14;;;;;;;9.88;5.65;;;;;;;12.83;61.87;100662.50;2055472;28;20045;-69
2022/09/25 04:26:24;;;;;;;9.75;6.00;;;;;;;12.83;61.99;100659.78;2055574;28;20046;-69
2022/09/25 04:27:26;;;;;;;13.98;6.03;;;;;;;12.82;62.02;100657.38;2063693;28;20039;-69
2022/09/25 04:28:30;;;;;;;10.73;5.68;;;;;;;12.82;62.06;100660.06;2069899;28;20038;-69
2022/09/25 04:29:41;;;;;;;10.45;5.57;;;;;;;12.83;62.23;100658.97;2079655;28;20053;-71
2022/09/25 04:30:43;;;;;;;10.32;5.43;;;;;;;12.83;62.33;100658.97;2071596;28;20037;-70
2022/09/25 04:33:45;;;;;;;10.13;5.60;;;;;;;12.85;62.24;100662.19;2063976;28;20038;-69
2022/09/25 04:34:39;;;;;;;9.23;5.30;;;;;;;12.86;62.38;100652.97;2066833;28;20061;-68
2022/09/25 04:35:47;;;;;;;9.65;5.43;;;;;;;12.87;62.38;100658.09;2066280;28;20080;-68
2022/09/25 04:36:49;;;;;;;10.45;5.70;;;;;;;12.87;62.33;100658.09;2070431;28;20045;-68
2022/09/25 04:37:54;;;;;;;9.85;5.00;;;;;;;12.87;62.44;100657.31;2062763;28;20664;-68
2022/09/25 04:39:01;;;;;;;10.07;5.75;;;;;;;12.87;62.28;100660.00;2055063;28;20868;-68
2022/09/25 04:40:09;;;;;;;11.35;5.85;;;;;;;12.87;62.17;100655.41;2062550;28;20522;-68
2022/09/25 04:41:15;;;;;;;9.90;5.28;;;;;;;12.87;62.20;100660.00;2073400;28;20493;-68
2022/09/25 04:42:19;;;;;;;10.70;4.93;;;;;;;12.87;62.02;100665.41;2062425;28;20041;-67
2022/09/25 04:43:26;;;;;;;9.32;4.90;;;;;;;12.88;61.65;100656.19;2058959;28;20061;-69
2022/09/25 04:44:29;;;;;;;8.52;5.35;;;;;;;12.87;61.77;100655.41;2062878;28;20050;-68
2022/09/25 04:45:37;;;;;;;9.10;5.07;;;;;;;12.87;61.67;100657.31;2070769;28;20053;-68
2022/09/25 04:46:41;;;;;;;8.18;5.20;;;;;;;12.87;61.75;100651.91;2070862;28;20505;-68
2022/09/25 04:47:46;;;;;;;9.23;4.57;;;;;;;12.89;61.94;100658.63;2070978;28;20047;-68
2022/09/25 04:48:48;;;;;;;8.85;4.88;;;;;;;12.90;61.94;100659.41;2070326;28;20042;-68
2022/09/25 04:49:52;;;;;;;27.60;14.18;;;;;;;12.89;61.96;100652.41;2070411;28;20474;-68
2022/09/25 04:51:02;;;;;;;11.73;6.35;;;;;;;12.90;62.24;100654.81;2078010;28;20048;-69
2022/09/25 04:52:10;;;;;;;9.85;5.50;;;;;;;12.91;62.34;100650.22;2069834;28;20552;-68
2022/09/25 04:53:15;;;;;;;10.02;5.72;;;;;;;12.91;62.25;100651.03;2062846;28;20042;-68
2022/09/25 04:54:27;;;;;;;10.45;5.85;;;;;;;12.91;62.18;100653.72;2062526;28;20042;-69
2022/09/25 04:55:32;;;;;;;9.70;5.30;;;;;;;12.92;61.88;100652.63;2065462;28;20058;-68
2022/09/25 04:56:35;;;;;;;12.35;5.55;;;;;;;12.93;61.91;100653.44;2064194;28;20046;-67
2022/09/25 04:57:42;;;;;;;7.22;4.75;;;;;;;12.92;61.81;100639.13;2062240;28;20054;-67
2022/09/25 04:58:47;;;;;;;10.25;4.57;;;;;;;12.93;61.65;100638.06;2070356;28;20046;-68
2022/09/25 04:59:52;;;;;;;6.72;4.60;;;;;;;12.93;61.30;100640.75;2070289;28;20069;-68
2022/09/25 05:00:59;;;;;;;10.63;4.65;;;;;;;12.95;61.02;100648.53;2075035;28;20041;-67
2022/09/25 05:02:02;;;;;;;10.43;4.80;;;;;;;12.93;60.70;100643.44;2077345;28;20033;-68
2022/09/25 05:03:07;;;;;;;7.57;4.70;;;;;;;12.96;60.53;100647.47;2062254;28;20402;-68
2022/09/25 05:04:15;;;;;;;9.95;4.75;;;;;;;12.96;60.60;100652.88;2047886;28;20043;-68
2022/09/25 05:05:20;;;;;;;7.00;4.18;;;;;;;12.96;60.63;100642.88;2062874;28;20054;-68
2022/09/25 05:06:26;;;;;;;9.55;5.15;;;;;;;12.99;60.72;100657.69;2076591;28;20053;-68
2022/09/25 05:07:27;;;;;;;11.07;5.18;;;;;;;12.98;60.49;100650.66;2070069;28;20057;-68
2022/09/25 05:08:35;;;;;;;8.05;4.70;;;;;;;12.98;60.41;100656.84;2070178;28;20044;-68
2022/09/25 05:09:42;;;;;;;7.80;4.75;;;;;;;12.98;60.48;100651.44;2078241;28;20049;-68
2022/09/25 05:10:45;;;;;;;10.07;4.60;;;;;;;13.00;60.42;100653.88;2070197;28;20148;-68
2022/09/25 05:11:47;;;;;;;9.82;5.20;;;;;;;12.99;60.37;100658.47;2062224;28;20053;-68
2022/09/25 05:12:57;;;;;;;7.55;4.97;;;;;;;13.00;60.25;100653.88;2062139;28;20046;-68
2022/09/25 05:14:02;;;;;;;10.75;5.38;;;;;;;13.02;60.25;100662.50;2070608;28;20049;-68
2022/09/25 05:15:08;;;;;;;10.93;5.65;;;;;;;13.00;60.28;100659.28;2078297;28;20041;-68
2022/09/25 05:16:10;;;;;;;10.35;5.63;;;;;;;13.01;60.13;100662.78;2078428;28;20049;-68
2022/09/25 05:17:12;;;;;;;10.15;5.05;;;;;;;13.01;60.19;100657.38;2072156;28;20046;-68
2022/09/25 05:18:22;;;;;;;9.35;5.13;;;;;;;13.02;60.30;100667.06;2062012;28;20049;-68
2022/09/25 05:19:28;;;;;;;9.13;5.22;;;;;;;13.02;60.37;100662.50;2068011;28;20058;-68
2022/09/25 05:20:38;;;;;;;9.13;5.00;;;;;;;13.02;60.19;100661.66;2075584;28;20823;-69
2022/09/25 05:21:44;;;;;;;;;;;;;;;13.02;60.08;100658.97;2070564;28;20069;-68
2022/09/25 05:22:47;;;;;;;10.15;5.68;;;;;;;13.01;60.15;100665.47;2067125;28;19929;-68